createdAt,value
2019-01-19T00:04:51.080Z,19.00
2019-01-19T00:10:28.712Z,19.67
2019-01-19T00:16:10.644Z,20.53
2019-01-19T00:21:57.216Z,19.27
2019-01-19T00:27:27.207Z,22.23
2019-01-19T00:33:03.184Z,19.60
2019-01-19T00:38:51.575Z,20.80
2019-01-19T00:44:15.583Z,16.53
2019-01-19T00:49:34.858Z,18.77
2019-01-19T00:54:55.944Z,20.67
2019-01-19T01:00:22.535Z,19.67
2019-01-19T01:05:43.671Z,21.40
2019-01-19T01:11:07.461Z,18.37
2019-01-19T01:16:46.764Z,21.97
2019-01-19T01:22:24.147Z,20.00
2019-01-19T01:27:47.722Z,17.97
2019-01-19T01:33:30.519Z,21.00
2019-01-19T01:38:57.428Z,13.57
2019-01-19T01:44:35.252Z,14.37
2019-01-19T01:50:13.953Z,16.87
2019-01-19T01:55:34.824Z,20.03
2019-01-19T02:01:11.022Z,16.00
2019-01-19T02:06:47.152Z,15.43
2019-01-19T02:12:28.947Z,17.97
2019-01-19T02:18:02.035Z,19.07
2019-01-19T02:23:23.216Z,16.23
2019-01-19T02:28:50.280Z,25.27
2019-01-19T02:34:34.369Z,27.47
2019-01-19T02:40:27.267Z,29.27
2019-01-19T02:46:08.900Z,24.33
2019-01-19T02:51:41.984Z,20.67
2019-01-19T02:57:18.363Z,22.30
2019-01-19T03:02:50.734Z,26.27
2019-01-19T03:08:11.848Z,24.27
2019-01-19T03:13:50.359Z,27.23
2019-01-19T03:19:20.208Z,22.67
2019-01-19T03:24:47.104Z,19.10
2019-01-19T03:30:08.345Z,25.83
2019-01-19T03:35:38.501Z,24.13
2019-01-19T03:41:14.648Z,24.73
2019-01-19T03:46:54.075Z,22.40
2019-01-19T03:52:31.599Z,25.77
2019-01-19T03:57:58.113Z,21.93
2019-01-19T04:03:37.291Z,24.80
2019-01-19T04:09:18.862Z,18.63
2019-01-19T04:15:04.083Z,19.10
2019-01-19T04:20:58.543Z,20.80
2019-01-19T04:26:18.299Z,23.20
2019-01-19T04:31:36.123Z,17.90
2019-01-19T04:36:54.121Z,19.57
2019-01-19T04:42:12.220Z,21.97
2019-01-19T04:47:30.179Z,18.90
2019-01-19T04:52:48.011Z,16.73
2019-01-19T04:58:05.835Z,18.00
2019-01-19T05:03:23.664Z,18.20
2019-01-19T05:08:41.493Z,17.63
2019-01-19T05:13:59.320Z,15.73
2019-01-19T05:19:17.143Z,17.40
2019-01-19T05:24:34.987Z,16.40
2019-01-19T05:29:52.874Z,18.03
2019-01-19T05:35:10.712Z,17.27
2019-01-19T05:40:28.533Z,13.97
2019-01-19T05:45:46.366Z,16.73
2019-01-19T05:51:04.255Z,15.00
2019-01-19T05:56:22.083Z,12.77
2019-01-19T06:01:39.953Z,16.37
2019-01-19T06:06:57.769Z,15.30
2019-01-19T06:12:15.660Z,15.37
2019-01-19T06:17:33.483Z,14.93
2019-01-19T06:22:51.313Z,21.10
2019-01-19T06:28:09.140Z,13.10
2019-01-19T06:33:26.971Z,13.93
2019-01-19T06:38:44.797Z,15.10
2019-01-19T06:44:02.627Z,15.13
2019-01-19T06:49:20.461Z,14.17
2019-01-19T06:54:40.251Z,16.73
2019-01-19T06:59:58.083Z,20.17
2019-01-19T07:05:15.955Z,14.60
2019-01-19T07:10:35.570Z,12.53
2019-01-19T07:15:53.383Z,13.40
2019-01-19T07:21:11.184Z,12.40
2019-01-19T07:26:29.012Z,15.67
2019-01-19T07:31:46.860Z,13.90
2019-01-19T07:37:09.797Z,11.57
2019-01-19T07:42:24.244Z,14.33
2019-01-19T07:47:43.131Z,14.80
2019-01-19T07:53:00.958Z,14.80
2019-01-19T07:58:18.851Z,15.00
2019-01-19T08:03:36.676Z,20.30
2019-01-19T08:08:54.514Z,16.10
2019-01-19T08:14:12.336Z,15.47
2019-01-19T08:19:30.165Z,12.23
2019-01-19T08:24:47.992Z,14.67
2019-01-19T08:30:23.345Z,12.20
2019-01-19T08:35:42.147Z,14.33
2019-01-19T08:41:00.031Z,44.93
2019-01-19T08:46:18.211Z,14.37
2019-01-19T08:51:36.074Z,15.07
2019-01-19T08:56:54.179Z,14.80
2019-01-19T09:02:12.302Z,13.83
2019-01-19T09:07:33.853Z,12.80
2019-01-19T09:12:50.107Z,16.20
2019-01-19T09:18:08.259Z,15.50
2019-01-19T09:23:28.000Z,16.93
2019-01-19T09:28:47.094Z,14.60
2019-01-19T09:34:05.195Z,14.20
2019-01-19T09:39:23.394Z,11.60
2019-01-19T09:44:41.512Z,11.40
2019-01-19T09:49:59.618Z,12.80
2019-01-19T09:55:17.729Z,12.80
2019-01-19T10:00:37.847Z,10.43
2019-01-19T10:05:55.610Z,11.23
2019-01-19T10:11:14.095Z,12.63
2019-01-19T10:16:32.236Z,12.83
2019-01-19T10:21:50.399Z,12.10
2019-01-19T10:27:08.490Z,7.93
2019-01-19T10:32:26.591Z,7.87
2019-01-19T10:37:44.686Z,9.67
2019-01-19T10:43:04.155Z,11.50
2019-01-19T10:48:22.276Z,9.00
2019-01-19T10:53:40.416Z,8.53
2019-01-19T10:58:58.499Z,7.23
2019-01-19T11:04:16.586Z,7.30
2019-01-19T11:09:34.686Z,9.80
2019-01-19T11:14:52.805Z,10.37
2019-01-19T11:20:19.343Z,8.30
2019-01-19T11:25:37.465Z,9.23
2019-01-19T11:30:55.555Z,8.03
2019-01-19T11:36:13.664Z,10.37
2019-01-19T11:41:31.768Z,10.23
2019-01-19T11:46:49.866Z,7.93
2019-01-19T11:52:07.947Z,7.40
2019-01-19T11:57:26.051Z,12.17
2019-01-19T12:02:44.208Z,12.07
2019-01-19T12:08:02.332Z,9.80
2019-01-19T12:13:20.435Z,9.47
2019-01-19T12:18:38.547Z,14.33
2019-01-19T12:23:56.670Z,12.60
2019-01-19T12:29:14.480Z,9.83
2019-01-19T12:34:32.311Z,11.03
2019-01-19T12:39:50.136Z,10.23
2019-01-19T12:45:14.228Z,10.50
2019-01-19T12:50:32.040Z,10.30
2019-01-19T12:55:49.931Z,10.77
2019-01-19T13:01:07.815Z,10.33
2019-01-19T13:06:31.626Z,10.40
2019-01-19T13:12:07.839Z,9.77
2019-01-19T13:17:37.811Z,12.50
2019-01-19T13:23:16.908Z,9.37
2019-01-19T13:28:59.415Z,14.27
2019-01-19T13:34:37.031Z,9.37
2019-01-19T13:40:06.855Z,9.63
2019-01-19T13:45:45.371Z,13.83
2019-01-19T13:51:21.648Z,10.43
2019-01-19T13:56:48.517Z,10.23
2019-01-19T14:02:34.804Z,8.83
2019-01-19T14:08:17.328Z,7.10
2019-01-19T14:13:50.453Z,9.00
2019-01-19T14:19:37.507Z,9.13
2019-01-19T14:24:58.591Z,12.50
2019-01-19T14:30:28.895Z,9.40
2019-01-19T14:36:02.236Z,12.60
2019-01-19T14:41:38.217Z,12.73
2019-01-19T14:47:05.147Z,10.30
2019-01-19T14:52:41.111Z,11.07
2019-01-19T14:58:04.980Z,10.97
2019-01-19T15:03:35.263Z,10.27
2019-01-19T15:09:03.904Z,10.10
2019-01-19T15:14:57.003Z,14.13
2019-01-19T15:20:29.319Z,15.33
2019-01-19T15:26:09.343Z,15.33
2019-01-19T15:31:39.170Z,14.70
2019-01-19T15:37:24.672Z,13.57
2019-01-19T15:43:09.428Z,16.90
2019-01-19T15:48:40.663Z,9.50
2019-01-19T15:54:07.494Z,16.83
2019-01-19T15:59:45.348Z,8.80
2019-01-19T16:05:24.603Z,12.00
2019-01-19T16:11:03.943Z,10.87
2019-01-19T16:16:54.347Z,8.50
2019-01-19T16:22:21.151Z,13.53
2019-01-19T16:28:01.738Z,10.13
2019-01-19T16:33:34.528Z,8.23
2019-01-19T16:38:58.665Z,14.13
2019-01-19T16:44:42.183Z,10.27
2019-01-19T16:50:36.912Z,11.77
2019-01-19T16:56:14.517Z,11.93
2019-01-19T17:01:43.987Z,11.77
2019-01-19T17:07:07.750Z,13.37
2019-01-19T17:12:28.833Z,11.73
2019-01-19T17:17:49.909Z,13.73
2019-01-19T17:23:25.723Z,17.10
2019-01-19T17:28:49.679Z,13.60
2019-01-19T17:34:16.611Z,14.33
2019-01-19T17:39:46.782Z,13.77
2019-01-19T17:45:36.335Z,10.70
2019-01-19T17:51:26.216Z,16.63
2019-01-19T17:56:59.324Z,20.67
2019-01-19T18:02:29.627Z,14.07
2019-01-19T20:04:58.885Z,22.77
2019-01-19T20:10:19.181Z,23.90
2019-01-19T20:15:37.156Z,25.63
2019-01-19T20:20:55.185Z,24.90
2019-01-19T20:26:13.091Z,27.47
2019-01-19T20:31:30.984Z,26.33
2019-01-19T20:36:48.888Z,27.17
2019-01-19T20:42:06.790Z,31.33
2019-01-19T20:47:24.714Z,37.03
2019-01-19T20:52:42.769Z,31.30
2019-01-19T20:58:00.599Z,29.90
2019-01-19T21:03:18.749Z,36.60
2019-01-19T21:08:36.858Z,35.70
2019-01-19T21:13:57.169Z,40.23
2019-01-19T21:19:15.294Z,30.93
2019-01-19T21:24:33.132Z,33.97
2019-01-19T21:29:53.708Z,38.27
2019-01-19T21:35:11.831Z,36.70
2019-01-19T21:40:29.680Z,39.17
2019-01-19T21:45:47.517Z,38.00
2019-01-19T21:51:14.150Z,37.43
2019-01-19T21:56:28.643Z,40.37
2019-01-19T22:01:46.487Z,44.00
2019-01-19T22:07:04.342Z,37.53
2019-01-19T22:12:22.440Z,36.70
2019-01-19T22:17:41.344Z,42.97
2019-01-19T22:22:59.210Z,46.00
2019-01-19T22:28:17.060Z,46.03
2019-01-19T22:33:34.959Z,41.70
2019-01-19T22:38:53.376Z,41.00
2019-01-19T22:44:11.251Z,48.73
2019-01-19T22:49:29.090Z,41.13
2019-01-19T22:54:46.982Z,41.07
2019-01-19T23:00:08.075Z,40.30
2019-01-19T23:05:26.779Z,42.03
2019-01-19T23:10:46.451Z,40.50
2019-01-19T23:16:04.391Z,45.10
2019-01-19T23:21:22.223Z,42.83
2019-01-19T23:26:40.327Z,39.70
2019-01-19T23:31:58.161Z,45.07
2019-01-19T23:37:15.999Z,42.40
2019-01-19T23:42:33.872Z,40.70
2019-01-19T23:47:51.740Z,45.77
2019-01-19T23:53:09.577Z,43.03
2019-01-19T23:58:27.411Z,46.10
